Time;durP1;ratioP1;P1;durP2;ratioP2;P2;SDS_P1;SDS_P2;PMS_P1;PMS_P2;Temp;Humidity;BMP_temperature;BMP_pressure;BME280_temperature;BME280_humidity;BME280_pressure;Samples;Min_cycle;Max_cycle;Signal;HPM_P1;HPM_P2
2021/03/06 00:00:15;;;;;;;12.20;5.93;;;;;;;3.58;59.16;102834.88;5078928;28;20823;-79
2021/03/06 00:02:40;;;;;;;13.13;6.33;;;;;;;3.28;59.50;102846.44;5078054;28;20169;-77
2021/03/06 00:05:07;;;;;;;8.40;6.27;;;;;;;3.09;59.37;102855.38;5079257;28;20450;-77
2021/03/06 00:07:32;;;;;;;6.63;5.37;;;;;;;3.22;60.19;102857.22;5079030;28;20169;-77
2021/03/06 00:09:57;;;;;;;11.27;6.10;;;;;;;2.91;60.53;102854.00;5078880;28;20517;-77
2021/03/06 00:12:23;;;;;;;8.40;5.50;;;;;;;3.07;60.03;102850.91;5078949;28;20241;-78
2021/03/06 00:14:48;;;;;;;7.77;5.93;;;;;;;3.35;59.59;102852.13;5077948;28;20215;-77
2021/03/06 00:17:13;;;;;;;7.47;5.70;;;;;;;2.99;60.41;102856.38;5078580;28;20177;-78
2021/03/06 00:19:39;;;;;;;8.03;5.80;;;;;;;2.68;60.78;102866.06;5078290;28;20172;-77
2021/03/06 00:22:04;;;;;;;9.40;5.83;;;;;;;2.74;60.66;102858.78;5078684;28;20164;-77
2021/03/06 00:24:30;;;;;;;11.80;5.93;;;;;;;2.40;61.86;102865.63;5078693;28;20180;-78
2021/03/06 00:26:56;;;;;;;9.57;5.97;;;;;;;2.61;61.30;102867.28;5078152;28;20586;-77
2021/03/06 00:29:21;;;;;;;11.20;6.00;;;;;;;2.73;61.10;102853.53;5078479;28;20162;-77
2021/03/06 00:31:46;;;;;;;8.20;5.30;;;;;;;2.66;62.38;102860.78;5078668;28;20407;-77
2021/03/06 00:34:12;;;;;;;11.50;6.10;;;;;;;2.68;61.00;102848.94;5079259;28;20177;-77
2021/03/06 00:36:37;;;;;;;9.20;5.73;;;;;;;2.74;61.06;102855.34;5078675;28;20244;-77
2021/03/06 00:39:05;;;;;;;8.90;5.53;;;;;;;3.01;60.18;102852.22;5079833;28;20530;-77
2021/03/06 00:41:30;;;;;;;7.03;5.30;;;;;;;2.65;60.67;102856.44;5085483;28;20157;-77
2021/03/06 00:43:55;;;;;;;8.83;4.67;;;;;;;2.41;62.09;102867.41;5085371;28;20532;-77
2021/03/06 00:46:20;;;;;;;11.63;5.00;;;;;;;2.50;61.58;102855.25;5085010;28;20265;-77
2021/03/06 00:48:46;;;;;;;5.30;4.47;;;;;;;2.50;61.47;102850.09;5085300;28;20530;-76
2021/03/06 00:51:11;;;;;;;5.23;4.30;;;;;;;2.29;62.50;102864.78;5084857;28;20187;-77
2021/03/06 00:53:37;;;;;;;9.50;4.83;;;;;;;2.62;61.56;102856.16;5084853;28;20179;-77
2021/03/06 00:56:03;;;;;;;8.90;4.37;;;;;;;2.52;62.42;102851.13;5085660;28;20165;-76
2021/03/06 00:58:28;;;;;;;6.30;4.60;;;;;;;2.45;61.96;102854.91;5084341;28;20193;-76
2021/03/06 01:00:54;;;;;;;8.00;4.40;;;;;;;2.58;61.70;102850.69;5084881;28;20422;-77
2021/03/06 01:03:20;;;;;;;7.07;4.70;;;;;;;2.64;60.74;102856.31;5085511;28;20165;-77
2021/03/06 01:05:45;;;;;;;8.83;4.60;;;;;;;2.59;61.07;102853.38;5085165;28;20511;-77
2021/03/06 01:08:11;;;;;;;10.67;4.67;;;;;;;2.66;61.34;102847.91;5084410;28;20193;-77
2021/03/06 01:10:40;;;;;;;9.23;5.10;;;;;;;2.39;61.85;102848.38;5085445;28;20425;-78
2021/03/06 01:13:06;;;;;;;9.63;4.57;;;;;;;2.69;61.18;102840.44;5084768;28;20172;-77
2021/03/06 01:15:31;;;;;;;7.30;4.40;;;;;;;2.01;62.96;102848.06;5083892;28;20449;-77
2021/03/06 01:17:57;;;;;;;7.30;5.13;;;;;;;2.90;61.41;102829.94;5085253;28;20675;-78
2021/03/06 01:20:22;;;;;;;12.57;4.90;;;;;;;2.47;62.15;102839.56;5084952;28;20253;-77
2021/03/06 01:22:48;;;;;;;8.43;4.90;;;;;;;2.24;62.37;102843.84;5084820;28;20492;-78
2021/03/06 01:25:14;;;;;;;4.53;4.03;;;;;;;2.45;63.60;102841.09;5084795;28;20221;-77
2021/03/06 01:27:39;;;;;;;8.73;4.57;;;;;;;2.35;62.52;102837.84;5084856;28;20180;-79
2021/03/06 01:30:06;;;;;;;6.20;5.03;;;;;;;2.38;62.23;102833.72;5084717;28;20444;-77
2021/03/06 01:32:32;;;;;;;6.77;4.40;;;;;;;2.62;62.57;102829.53;5084019;28;20172;-79
2021/03/06 01:34:57;;;;;;;7.37;5.20;;;;;;;2.40;62.63;102832.16;5083804;28;20922;-78
2021/03/06 01:37:22;;;;;;;7.03;4.40;;;;;;;2.12;63.46;102837.75;5086358;28;20541;-77
2021/03/06 01:39:48;;;;;;;11.27;5.33;;;;;;;2.58;61.76;102830.09;5084899;28;20180;-78
2021/03/06 01:42:13;;;;;;;8.13;5.70;;;;;;;2.29;62.96;102832.22;5085188;28;20285;-78
2021/03/06 01:44:41;;;;;;;7.10;4.60;;;;;;;2.66;62.08;102819.56;5085606;28;20191;-78
2021/03/06 01:47:06;;;;;;;10.03;5.20;;;;;;;2.46;62.23;102814.59;5087664;28;20252;-78
2021/03/06 01:49:31;;;;;;;7.97;4.40;;;;;;;2.60;62.14;102808.81;5087157;28;20426;-77
2021/03/06 01:51:57;;;;;;;10.93;4.30;;;;;;;2.53;62.41;102816.88;5081498;28;20168;-77
2021/03/06 01:54:25;;;;;;;9.63;5.40;;;;;;;2.51;62.84;102813.28;5081082;28;20183;-77
2021/03/06 01:56:51;;;;;;;6.70;4.00;;;;;;;2.66;62.94;102819.56;5080683;28;20413;-78
2021/03/06 01:59:16;;;;;;;7.37;4.53;;;;;;;2.45;62.88;102815.38;5081064;28;20747;-75
2021/03/06 02:01:42;;;;;;;10.53;5.40;;;;;;;2.17;63.95;102814.16;5081266;28;20407;-77
2021/03/06 02:04:07;;;;;;;8.03;4.70;;;;;;;2.29;63.24;102801.34;5081809;28;20177;-78
2021/03/06 02:06:32;;;;;;;9.33;4.43;;;;;;;2.58;62.94;102794.03;5090893;28;20208;-76
2021/03/06 02:08:58;;;;;;;15.80;4.80;;;;;;;2.68;62.75;102800.00;5091688;28;20175;-77
2021/03/06 02:11:49;;;;;;;8.23;4.30;;;;;;;2.40;63.04;102797.00;5085817;28;20480;-79
2021/03/06 02:14:46;;;;;;;9.27;5.10;;;;;;;2.74;62.84;102796.09;5089558;28;20236;-75
2021/03/06 02:17:22;;;;;;;8.17;4.43;;;;;;;2.35;62.86;102796.66;5087086;28;20415;-79
2021/03/06 02:20:00;;;;;;;10.80;4.80;;;;;;;2.38;63.32;102795.09;5085487;28;20457;-76
2021/03/06 02:22:49;;;;;;;8.83;4.50;;;;;;;2.29;63.90;102795.31;5087580;28;20423;-77
2021/03/06 02:25:23;;;;;;;6.20;4.00;;;;;;;2.42;62.92;102797.13;5084966;28;20501;-77
2021/03/06 02:27:58;;;;;;;6.00;4.40;;;;;;;2.69;62.22;102790.56;5084012;28;20453;-77
2021/03/06 02:30:26;;;;;;;9.50;4.13;;;;;;;2.43;62.98;102793.78;5081794;28;20415;-78
2021/03/06 02:32:51;;;;;;;8.17;4.20;;;;;;;2.57;62.48;102787.09;5082250;28;20408;-78
2021/03/06 02:35:29;;;;;;;5.67;4.23;;;;;;;2.73;62.25;102787.44;5095352;28;20427;-77
2021/03/06 02:38:05;;;;;;;8.60;5.60;;;;;;;2.68;62.87;102781.97;5087507;28;20229;-78
2021/03/06 02:40:30;;;;;;;6.50;4.33;;;;;;;2.39;63.22;102781.44;5081853;28;20780;-78
2021/03/06 02:42:57;;;;;;;12.43;4.37;;;;;;;2.38;63.69;102784.81;5080175;28;20407;-76
2021/03/06 02:45:23;;;;;;;6.13;3.90;;;;;;;2.50;62.68;102780.56;5080836;28;20208;-79
2021/03/06 02:47:48;;;;;;;5.87;4.23;;;;;;;2.09;64.49;102783.47;5080882;28;20865;-78
2021/03/06 02:50:14;;;;;;;5.30;4.27;;;;;;;2.58;62.61;102779.47;5081333;28;20498;-77
2021/03/06 02:52:39;;;;;;;5.97;4.20;;;;;;;2.24;64.18;102778.59;5080274;28;20433;-77
2021/03/06 02:55:09;;;;;;;9.93;4.70;;;;;;;2.70;62.74;102770.09;5080566;28;20176;-77
2021/03/06 02:58:12;;;;;;;8.10;3.60;;;;;;;2.60;64.60;102769.28;5080591;28;20547;-78
2021/03/06 03:00:42;;;;;;;7.27;3.80;;;;;;;3.13;61.72;102763.75;5079967;28;20532;-77
2021/03/06 03:03:10;;;;;;;6.00;3.97;;;;;;;2.99;62.21;102760.13;5080322;28;20403;-76
2021/03/06 03:06:00;;;;;;;6.17;4.00;;;;;;;3.11;61.45;102757.56;5079722;28;20485;-77
2021/03/06 03:08:28;;;;;;;5.50;4.33;;;;;;;2.76;62.42;102763.59;5079687;28;20505;-77
2021/03/06 03:10:59;;;;;;;4.77;3.63;;;;;;;2.23;64.46;102762.25;5079505;28;20503;-78
2021/03/06 03:13:33;;;;;;;10.30;4.50;;;;;;;2.66;63.47;102762.03;5079098;28;20696;-76
2021/03/06 03:16:39;;;;;;;6.33;3.60;;;;;;;2.71;63.25;102763.28;5078920;28;20422;-79
2021/03/06 03:19:32;;;;;;;5.07;3.73;;;;;;;3.16;61.92;102756.22;5079100;28;20707;-79
2021/03/06 03:21:58;;;;;;;8.33;4.37;;;;;;;2.93;62.40;102751.97;5077958;28;20511;-78
2021/03/06 03:24:24;;;;;;;5.43;3.50;;;;;;;2.80;63.10;102752.75;5062655;28;20426;-78
2021/03/06 03:26:50;;;;;;;5.30;3.90;;;;;;;2.61;65.10;102748.81;5078508;28;20471;-77
2021/03/06 03:29:16;;;;;;;9.07;4.07;;;;;;;2.85;63.71;102749.72;5078696;28;20423;-77
2021/03/06 03:31:47;;;;;;;7.63;3.60;;;;;;;2.97;63.30;102741.13;5079054;28;20399;-77
2021/03/06 03:34:13;;;;;;;6.37;3.60;;;;;;;2.92;63.21;102747.59;5078738;28;20425;-78
2021/03/06 03:36:39;;;;;;;10.83;4.20;;;;;;;2.73;63.88;102747.94;5079358;28;20411;-77
2021/03/06 03:39:05;;;;;;;6.47;3.80;;;;;;;2.81;63.00;102747.69;5062313;28;20415;-76
2021/03/06 03:41:31;;;;;;;5.97;3.93;;;;;;;2.68;64.32;102743.34;5079020;28;20419;-77
2021/03/06 03:44:00;;;;;;;8.67;4.17;;;;;;;2.55;64.37;102742.31;5078317;28;20232;-76
2021/03/06 03:46:25;;;;;;;4.97;3.70;;;;;;;2.34;64.67;102743.41;5079422;28;20688;-75
2021/03/06 03:48:52;;;;;;;11.47;3.97;;;;;;;2.49;64.66;102740.16;5063814;28;20433;-76
2021/03/06 03:51:17;;;;;;;5.17;3.63;;;;;;;2.98;64.58;102742.91;5078797;28;20260;-76
2021/03/06 03:53:43;;;;;;;7.70;4.00;;;;;;;2.48;64.68;102749.56;5078841;28;20407;-77
2021/03/06 03:56:08;;;;;;;4.00;3.70;;;;;;;2.82;63.71;102739.19;5078967;28;20165;-77
2021/03/06 03:58:34;;;;;;;7.00;3.33;;;;;;;2.69;64.75;102740.00;5078706;28;20192;-78
2021/03/06 04:01:00;;;;;;;7.83;4.00;;;;;;;2.48;64.51;102746.13;5079362;28;20245;-77
2021/03/06 04:03:26;;;;;;;17.57;4.30;;;;;;;2.67;64.93;102750.97;5078909;28;20222;-77
2021/03/06 04:05:52;;;;;;;5.90;4.07;;;;;;;2.39;65.54;102758.28;5078721;28;20463;-77
2021/03/06 04:08:17;;;;;;;5.17;3.60;;;;;;;2.80;64.79;102758.81;5079275;28;20407;-78
2021/03/06 04:10:43;;;;;;;9.57;4.93;;;;;;;2.75;65.03;102759.22;5078980;28;20169;-76
2021/03/06 04:13:09;;;;;;;4.17;3.50;;;;;;;2.69;65.03;102760.59;5078011;28;20180;-77
2021/03/06 04:15:35;;;;;;;6.50;3.93;;;;;;;2.92;64.33;102751.06;5078672;28;20202;-76
2021/03/06 04:18:02;;;;;;;6.93;3.83;;;;;;;3.11;64.17;102757.56;5078805;28;20427;-75
2021/03/06 04:20:28;;;;;;;6.30;4.47;;;;;;;2.94;64.93;102749.50;5078663;28;20422;-75
2021/03/06 04:22:53;;;;;;;7.37;4.50;;;;;;;2.34;67.18;102763.97;5079005;28;20400;-76
2021/03/06 04:25:18;;;;;;;6.13;4.17;;;;;;;2.83;66.37;102753.00;5078351;28;20232;-78
2021/03/06 04:27:43;;;;;;;4.73;4.10;;;;;;;2.73;66.91;102755.66;5078476;28;20169;-78
2021/03/06 04:30:10;;;;;;;7.40;4.20;;;;;;;2.77;67.01;102750.84;5079199;28;20214;-79
2021/03/06 04:32:37;;;;;;;7.37;4.97;;;;;;;2.82;67.15;102753.75;5078489;28;20169;-77
2021/03/06 04:35:03;;;;;;;7.40;4.50;;;;;;;2.79;67.54;102749.28;5078637;28;20426;-77
2021/03/06 04:37:28;;;;;;;8.43;4.67;;;;;;;2.90;67.36;102755.22;5078998;28;20430;-78
2021/03/06 04:39:54;;;;;;;16.43;5.00;;;;;;;2.76;68.42;102759.38;5078632;28;20411;-78
2021/03/06 04:42:19;;;;;;;7.23;4.87;;;;;;;2.97;67.75;102754.88;5078482;28;20165;-78
2021/03/06 04:44:45;;;;;;;8.73;4.87;;;;;;;2.93;68.36;102755.44;5078228;28;20169;-77
2021/03/06 04:47:10;;;;;;;5.83;4.53;;;;;;;3.02;68.15;102766.44;5077797;28;20173;-77
2021/03/06 04:49:35;;;;;;;7.50;4.73;;;;;;;2.88;68.19;102758.47;5078497;28;20176;-76
2021/03/06 04:52:00;;;;;;;13.93;4.80;;;;;;;3.18;68.47;102759.78;5078888;28;20536;-77
2021/03/06 04:54:29;;;;;;;6.93;4.67;;;;;;;3.07;68.57;102763.28;5078429;28;20218;-78
2021/03/06 04:56:54;;;;;;;8.80;4.53;;;;;;;3.33;67.38;102754.88;5078330;28;20175;-78
2021/03/06 04:59:19;;;;;;;9.17;4.80;;;;;;;3.22;68.21;102745.47;5078875;28;20423;-78
2021/03/06 05:01:44;;;;;;;7.90;4.93;;;;;;;3.15;67.87;102744.13;5078380;28;20165;-78
2021/03/06 05:04:10;;;;;;;6.40;5.23;;;;;;;3.00;68.86;102751.63;5080455;28;20549;-77
2021/03/06 05:06:36;;;;;;;9.00;5.43;;;;;;;3.26;67.92;102744.91;5078630;28;20590;-79
2021/03/06 05:09:01;;;;;;;8.73;5.07;;;;;;;3.30;67.69;102749.47;5078282;28;20165;-77
2021/03/06 05:11:26;;;;;;;9.30;5.23;;;;;;;3.45;67.52;102745.44;5078103;28;20455;-77
2021/03/06 05:13:52;;;;;;;6.77;5.33;;;;;;;3.35;68.13;102751.59;5078946;28;20169;-77
2021/03/06 05:16:17;;;;;;;7.53;5.57;;;;;;;3.32;69.18;102753.97;5078082;28;20173;-77
2021/03/06 05:18:42;;;;;;;10.77;6.10;;;;;;;3.48;68.01;102752.50;5078193;28;20183;-77
2021/03/06 05:21:08;;;;;;;10.57;5.40;;;;;;;3.43;68.82;102762.47;5077664;28;20565;-77
2021/03/06 05:23:33;;;;;;;9.43;5.23;;;;;;;3.50;67.56;102766.38;5077999;28;20173;-78
2021/03/06 05:25:59;;;;;;;10.83;5.30;;;;;;;3.30;69.52;102764.94;5077760;28;20244;-77
2021/03/06 05:28:24;;;;;;;7.97;5.40;;;;;;;3.61;68.31;102759.41;5082975;28;20161;-78
2021/03/06 05:30:50;;;;;;;10.00;5.20;;;;;;;3.56;68.47;102766.81;5081111;28;20569;-78
2021/03/06 05:33:16;;;;;;;10.60;5.17;;;;;;;3.90;67.66;102771.78;5081990;28;20173;-78
2021/03/06 05:35:41;;;;;;;5.43;4.70;;;;;;;3.69;67.67;102766.91;5082112;28;20168;-79
2021/03/06 05:38:07;;;;;;;7.37;5.30;;;;;;;3.67;68.56;102765.91;5081766;28;20744;-79
2021/03/06 05:40:37;;;;;;;8.83;5.70;;;;;;;3.47;69.76;102769.63;5081519;28;20232;-78
2021/03/06 05:43:03;;;;;;;18.23;6.60;;;;;;;3.94;67.95;102763.47;5081276;28;20430;-79
2021/03/06 05:45:29;;;;;;;17.27;5.87;;;;;;;4.05;67.28;102759.91;5081346;28;20458;-75
2021/03/06 05:47:54;;;;;;;8.80;5.90;;;;;;;3.86;68.65;102764.59;5082047;28;20168;-78
2021/03/06 05:50:19;;;;;;;8.57;5.80;;;;;;;3.85;68.44;102762.81;5081902;28;20161;-77
2021/03/06 05:52:45;;;;;;;13.63;6.33;;;;;;;3.86;69.55;102769.78;5080801;28;20169;-77
2021/03/06 05:55:12;;;;;;;9.93;6.10;;;;;;;4.30;67.02;102763.28;5080505;28;20541;-77
2021/03/06 05:57:38;;;;;;;7.07;5.90;;;;;;;4.13;67.99;102760.47;5068102;28;20477;-76
2021/03/06 06:00:04;;;;;;;9.23;6.63;;;;;;;4.44;67.15;102748.72;5070393;28;20689;-76
2021/03/06 06:02:30;;;;;;;8.13;5.73;;;;;;;4.52;67.69;102756.19;5081136;28;20415;-77
2021/03/06 06:04:55;;;;;;;12.10;6.90;;;;;;;4.55;67.54;102758.09;5080943;28;20410;-75
2021/03/06 06:07:21;;;;;;;9.57;7.10;;;;;;;4.63;67.58;102754.34;5081393;28;20171;-77
2021/03/06 06:09:46;;;;;;;9.53;7.37;;;;;;;4.60;66.93;102761.88;5080576;28;20553;-78
2021/03/06 06:12:11;;;;;;;10.80;6.90;;;;;;;4.50;67.36;102773.28;5081442;28;20173;-77
2021/03/06 06:14:38;;;;;;;9.17;6.80;;;;;;;4.71;66.67;102762.59;5080985;28;20234;-78
2021/03/06 06:17:05;;;;;;;13.60;8.13;;;;;;;4.98;66.69;102768.69;5081186;28;20169;-77
2021/03/06 06:19:32;;;;;;;12.50;7.20;;;;;;;4.88;66.41;102774.03;5081225;28;20407;-77
2021/03/06 06:21:59;;;;;;;9.13;6.80;;;;;;;5.02;66.10;102774.94;5080427;28;20411;-77
2021/03/06 06:24:24;;;;;;;7.60;6.90;;;;;;;4.71;67.44;102772.94;5080018;28;20506;-76
2021/03/06 06:27:05;;;;;;;9.63;7.23;;;;;;;5.11;66.38;102769.47;5080384;28;20569;-77
2021/03/06 06:29:45;;;;;;;14.50;7.17;;;;;;;4.96;66.83;102766.78;5080558;28;20196;-77
2021/03/06 06:32:15;;;;;;;9.00;7.00;;;;;;;4.83;67.48;102767.66;5080521;28;20811;-77
2021/03/06 06:34:42;;;;;;;10.73;8.23;;;;;;;5.09;66.04;102773.63;5080383;28;20426;-77
2021/03/06 06:37:15;;;;;;;11.93;7.47;;;;;;;4.83;67.67;102765.06;5080362;28;20709;-76
2021/03/06 06:39:42;;;;;;;9.10;7.40;;;;;;;5.35;65.39;102767.56;5080434;28;20450;-76
2021/03/06 06:42:08;;;;;;;10.93;6.60;;;;;;;4.93;66.61;102772.66;5080332;28;20468;-77
2021/03/06 06:44:34;;;;;;;12.70;7.40;;;;;;;5.46;65.35;102768.25;5080291;28;20462;-77
2021/03/06 06:47:18;;;;;;;9.83;6.90;;;;;;;5.84;64.96;102769.75;5080501;28;20451;-77
2021/03/06 06:49:47;;;;;;;8.53;6.50;;;;;;;5.74;64.71;102769.19;5080373;28;20419;-77
2021/03/06 06:52:14;;;;;;;9.40;7.27;;;;;;;5.17;66.85;102777.66;5078734;28;20516;-75
2021/03/06 06:54:39;;;;;;;15.40;6.73;;;;;;;5.58;67.16;102781.97;5080165;28;20627;-77
2021/03/06 06:57:08;;;;;;;12.53;7.20;;;;;;;5.57;65.95;102778.50;5080149;28;20498;-77
2021/03/06 06:59:34;;;;;;;15.10;8.50;;;;;;;5.60;65.60;102788.09;5080169;28;20422;-77
2021/03/06 07:02:04;;;;;;;11.23;7.10;;;;;;;5.86;65.16;102789.75;5079759;28;20426;-76
2021/03/06 07:04:42;;;;;;;14.33;7.07;;;;;;;6.22;63.59;102794.53;5079487;28;20173;-76
2021/03/06 07:07:13;;;;;;;10.37;6.53;;;;;;;6.63;62.89;102792.63;5079891;28;20466;-74
2021/03/06 07:09:56;;;;;;;11.77;6.47;;;;;;;6.61;62.41;102792.53;5079439;28;20419;-73
2021/03/06 07:12:22;;;;;;;13.20;8.97;;;;;;;7.47;60.50;102783.59;5079337;28;20793;-73
2021/03/06 07:14:47;;;;;;;11.17;6.53;;;;;;;7.43;60.73;102789.44;5078520;28;20429;-73
2021/03/06 07:17:13;;;;;;;16.43;7.90;;;;;;;7.30;61.25;102789.56;5079209;28;20404;-73
2021/03/06 07:19:43;;;;;;;13.17;8.80;;;;;;;6.66;62.56;102788.53;5078503;28;20440;-73
2021/03/06 07:22:08;;;;;;;12.93;6.87;;;;;;;6.58;64.29;102802.75;5079373;28;20255;-76
2021/03/06 07:24:34;;;;;;;11.80;7.17;;;;;;;6.53;63.78;102798.97;5080075;28;20454;-77
2021/03/06 07:26:59;;;;;;;16.60;10.40;;;;;;;6.10;65.36;102807.63;5079077;28;20610;-79
2021/03/06 07:29:26;;;;;;;11.03;6.60;;;;;;;6.23;64.91;102806.69;5078451;28;20195;-78
2021/03/06 07:31:53;;;;;;;14.43;6.73;;;;;;;6.31;65.42;102804.56;5079759;28;20183;-78
2021/03/06 07:34:24;;;;;;;9.97;6.17;;;;;;;6.26;65.07;102804.28;5078924;28;20411;-79
2021/03/06 07:36:53;;;;;;;15.57;7.50;;;;;;;5.92;66.00;102814.25;5079872;28;20848;-77
2021/03/06 07:39:19;;;;;;;11.10;6.70;;;;;;;5.95;65.99;102812.72;5061934;28;20742;-77
2021/03/06 07:41:53;;;;;;;12.03;7.97;;;;;;;5.81;66.46;102814.47;5079377;28;20439;-78
2021/03/06 07:44:22;;;;;;;15.67;6.77;;;;;;;6.14;65.38;102806.13;5079653;28;20168;-78
2021/03/06 07:46:48;;;;;;;11.80;6.20;;;;;;;5.98;66.26;102812.06;5080881;28;20536;-78
2021/03/06 07:49:16;;;;;;;10.90;7.10;;;;;;;5.72;66.95;102816.47;5083085;28;20469;-75
2021/03/06 07:51:43;;;;;;;13.60;6.20;;;;;;;6.00;66.02;102806.16;5081990;28;20678;-77
2021/03/06 07:54:10;;;;;;;9.03;6.00;;;;;;;6.03;66.65;102810.66;5080119;28;20430;-78
2021/03/06 07:56:37;;;;;;;7.33;6.23;;;;;;;5.56;68.26;102817.19;5079376;28;20548;-78
2021/03/06 07:59:02;;;;;;;11.30;5.73;;;;;;;6.58;64.82;102815.69;5079310;28;20426;-75
2021/03/06 08:01:29;;;;;;;18.23;6.50;;;;;;;6.43;65.10;102814.75;5078680;28;20407;-76
2021/03/06 08:03:55;;;;;;;14.07;6.13;;;;;;;6.13;66.55;102823.38;5078845;28;20173;-79
2021/03/06 08:06:21;;;;;;;18.37;8.00;;;;;;;6.18;66.53;102821.06;5079490;28;20519;-77
2021/03/06 08:08:46;;;;;;;15.30;7.30;;;;;;;6.67;65.08;102812.75;5078548;28;20169;-78
2021/03/06 08:11:19;;;;;;;17.47;7.70;;;;;;;6.86;64.85;102814.72;5078753;28;20692;-80
2021/03/06 08:13:55;;;;;;;8.87;6.43;;;;;;;6.30;66.11;102820.91;5079269;28;20165;-77
2021/03/06 08:16:20;;;;;;;11.00;6.20;;;;;;;6.97;64.44;102813.66;5079333;28;20411;-79
2021/03/06 08:18:46;;;;;;;14.60;6.60;;;;;;;6.55;65.51;102823.28;5079302;28;20422;-78
2021/03/06 08:21:39;;;;;;;12.33;7.50;;;;;;;6.67;65.43;102831.78;5078357;28;20490;-78
2021/03/06 08:24:13;;;;;;;9.53;6.30;;;;;;;6.75;65.48;102832.22;5078564;28;20402;-79
2021/03/06 08:26:52;;;;;;;12.10;6.60;;;;;;;6.96;64.81;102827.41;5078132;28;20478;-78
2021/03/06 08:29:41;;;;;;;7.93;6.27;;;;;;;6.97;65.08;102824.03;5077892;28;20419;-77
2021/03/06 08:32:25;;;;;;;11.40;6.33;;;;;;;7.10;65.29;102829.91;5078394;28;20419;-78
2021/03/06 08:34:52;;;;;;;10.47;6.90;;;;;;;6.79;65.80;102835.91;5078714;28;20509;-77
2021/03/06 08:37:21;;;;;;;9.23;7.00;;;;;;;6.65;66.25;102835.97;5077528;28;20419;-77
2021/03/06 08:39:50;;;;;;;9.07;7.33;;;;;;;7.22;64.74;102839.28;5078304;28;20786;-78
2021/03/06 08:42:20;;;;;;;9.53;6.83;;;;;;;7.11;66.00;102842.97;5079262;28;20407;-74
2021/03/06 08:44:46;;;;;;;9.20;6.30;;;;;;;7.05;65.56;102855.59;5086378;28;20427;-77
2021/03/06 08:47:22;;;;;;;9.50;6.70;;;;;;;6.82;67.10;102854.22;5090540;28;20931;-79
2021/03/06 08:49:49;;;;;;;8.00;6.60;;;;;;;7.16;66.67;102851.03;5092653;28;20419;-78
2021/03/06 08:52:14;;;;;;;11.63;6.10;;;;;;;7.46;65.30;102843.22;5087220;28;20457;-77
2021/03/06 08:54:40;;;;;;;6.23;5.50;;;;;;;7.06;66.43;102844.41;5084296;28;20442;-78
2021/03/06 08:57:21;;;;;;;8.23;6.00;;;;;;;7.83;64.72;102851.31;5080770;28;20190;-79
2021/03/06 08:59:46;;;;;;;9.17;5.27;;;;;;;7.27;66.02;102857.72;5079261;28;20457;-78
2021/03/06 09:02:20;;;;;;;7.00;4.90;;;;;;;7.80;64.67;102858.06;5082523;28;20411;-78
2021/03/06 09:04:46;;;;;;;7.20;6.20;;;;;;;8.13;63.44;102852.91;5083016;28;20169;-77
2021/03/06 09:07:32;;;;;;;7.50;5.57;;;;;;;7.96;64.63;102854.63;5084960;28;20450;-79
2021/03/06 09:10:15;;;;;;;6.43;5.03;;;;;;;8.65;61.64;102855.69;5090778;28;20169;-79
2021/03/06 09:12:42;;;;;;;7.00;5.30;;;;;;;9.00;60.70;102853.09;5092596;28;20455;-79
2021/03/06 09:15:09;;;;;;;7.73;5.10;;;;;;;9.19;59.98;102855.81;5088043;28;20407;-80
2021/03/06 09:17:35;;;;;;;6.63;4.80;;;;;;;10.09;57.54;102842.69;5087831;28;20419;-79
2021/03/06 09:20:05;;;;;;;6.70;4.43;;;;;;;10.46;55.64;102835.66;5095829;28;20446;-78
2021/03/06 09:22:40;;;;;;;8.40;5.17;;;;;;;10.79;54.26;102838.81;5092645;28;20198;-77
2021/03/06 09:25:05;;;;;;;6.70;4.80;;;;;;;10.20;56.30;102840.56;5083316;28;20465;-78
2021/03/06 09:27:47;;;;;;;5.73;4.93;;;;;;;9.31;58.99;102852.91;5082093;28;20423;-79
2021/03/06 09:30:23;;;;;;;6.97;4.33;;;;;;;8.77;61.08;102858.91;5081916;28;20476;-78
2021/03/06 09:32:49;;;;;;;8.17;4.83;;;;;;;8.68;61.60;102860.16;5081334;28;20804;-78
2021/03/06 09:35:15;;;;;;;5.20;4.33;;;;;;;9.02;59.92;102856.66;5081090;28;20678;-76
2021/03/06 09:37:40;;;;;;;9.27;4.13;;;;;;;8.62;61.28;102862.44;5081929;28;20423;-77
2021/03/06 09:40:20;;;;;;;6.93;3.77;;;;;;;8.21;62.08;102856.81;5082297;28;20433;-78
2021/03/06 09:42:51;;;;;;;7.20;4.10;;;;;;;8.07;62.64;102866.47;5083045;28;20252;-78
2021/03/06 09:45:16;;;;;;;5.67;3.90;;;;;;;8.41;62.26;102860.47;5081464;28;20526;-79
2021/03/06 09:47:42;;;;;;;11.03;6.00;;;;;;;7.76;63.58;102864.78;5086053;28;20500;-79
2021/03/06 09:50:09;;;;;;;6.13;4.30;;;;;;;8.16;62.96;102850.47;5084129;28;20539;-76
2021/03/06 09:52:34;;;;;;;4.80;4.40;;;;;;;8.06;63.75;102857.78;5083195;28;20415;-76
2021/03/06 09:55:00;;;;;;;6.73;4.40;;;;;;;8.56;62.62;102845.69;5082642;28;20460;-75
2021/03/06 09:57:27;;;;;;;6.67;5.07;;;;;;;8.31;62.44;102843.50;5081634;28;20267;-76
2021/03/06 09:59:52;;;;;;;7.43;4.70;;;;;;;8.36;62.55;102844.66;5081782;28;20451;-77
2021/03/06 10:02:22;;;;;;;18.73;11.87;;;;;;;8.55;62.73;102850.81;5081799;28;20404;-78
2021/03/06 10:04:49;;;;;;;8.63;5.03;;;;;;;8.36;62.08;102842.03;5081560;28;20172;-77
2021/03/06 10:07:14;;;;;;;8.90;5.43;;;;;;;8.24;62.38;102838.78;5081186;28;20459;-78
2021/03/06 10:09:40;;;;;;;7.07;5.23;;;;;;;8.37;62.72;102843.81;5080839;28;20650;-79
2021/03/06 10:12:07;;;;;;;9.17;7.00;;;;;;;8.36;61.91;102847.25;5079418;28;20176;-79
2021/03/06 10:14:33;;;;;;;9.40;5.57;;;;;;;7.98;63.54;102845.19;5080220;28;20177;-77
2021/03/06 10:17:07;;;;;;;7.60;5.80;;;;;;;7.92;63.46;102853.53;5080913;28;20449;-78
2021/03/06 10:19:47;;;;;;;6.40;5.43;;;;;;;8.16;63.05;102858.25;5081040;28;20449;-78
2021/03/06 10:22:13;;;;;;;9.07;5.37;;;;;;;8.70;61.70;102864.63;5080913;28;20414;-77
2021/03/06 10:24:59;;;;;;;10.27;6.00;;;;;;;8.71;60.96;102858.63;5079866;28;20714;-79
2021/03/06 10:27:42;;;;;;;5.50;4.50;;;;;;;8.89;60.35;102844.75;5080831;28;20436;-78
2021/03/06 10:30:17;;;;;;;6.40;5.10;;;;;;;9.45;58.61;102845.78;5079809;28;20846;-77
2021/03/06 10:32:47;;;;;;;7.10;4.80;;;;;;;9.21;57.47;102848.06;5080218;28;20483;-78
2021/03/06 10:35:32;;;;;;;5.07;4.57;;;;;;;8.68;58.63;102841.97;5079755;28;20415;-78
2021/03/06 10:37:58;;;;;;;10.23;4.83;;;;;;;8.84;58.94;102854.03;5080676;28;20421;-77
2021/03/06 10:40:42;;;;;;;9.57;5.00;;;;;;;8.61;59.07;102853.75;5080261;28;20407;-78
2021/03/06 10:43:08;;;;;;;6.97;4.70;;;;;;;8.81;58.17;102843.47;5080638;28;20169;-78
2021/03/06 10:45:33;;;;;;;9.80;4.40;;;;;;;8.67;59.00;102840.16;5080198;28;20439;-78
2021/03/06 10:48:02;;;;;;;4.87;4.10;;;;;;;8.11;59.37;102837.25;5080056;28;20840;-77
2021/03/06 10:50:30;;;;;;;4.77;4.30;;;;;;;8.81;58.36;102835.66;5080274;28;20279;-78
2021/03/06 10:53:21;;;;;;;7.70;4.23;;;;;;;8.67;57.58;102846.25;5079762;28;20407;-78
2021/03/06 10:55:47;;;;;;;7.07;5.20;;;;;;;8.80;57.14;102833.91;5079935;28;20702;-76
2021/03/06 10:58:13;;;;;;;4.20;3.70;;;;;;;8.29;57.99;102845.13;5079740;28;20443;-78
2021/03/06 11:00:39;;;;;;;5.23;4.70;;;;;;;8.68;57.90;102847.16;5079673;28;20433;-76
2021/03/06 11:03:06;;;;;;;3.80;3.50;;;;;;;9.13;56.34;102841.59;5079783;28;20161;-78
2021/03/06 11:05:33;;;;;;;5.73;4.43;;;;;;;9.10;56.72;102835.41;5062092;28;20457;-75
2021/03/06 11:08:19;;;;;;;5.27;4.27;;;;;;;8.90;56.66;102841.34;5079568;28;20473;-79
2021/03/06 11:10:48;;;;;;;7.83;4.37;;;;;;;8.71;56.34;102837.81;5079745;28;20415;-79
2021/03/06 11:13:13;;;;;;;8.20;4.87;;;;;;;8.58;56.42;102843.19;5079156;28;20407;-77
2021/03/06 11:15:46;;;;;;;5.70;4.70;;;;;;;8.61;56.48;102840.75;5079575;28;20411;-77
2021/03/06 11:18:11;;;;;;;7.50;5.83;;;;;;;8.96;55.73;102830.34;5079522;28;20419;-79
2021/03/06 11:20:38;;;;;;;7.03;5.30;;;;;;;8.50;57.02;102834.13;5079950;28;20403;-79
2021/03/06 11:23:04;;;;;;;7.30;5.50;;;;;;;8.11;57.76;102823.38;5078575;28;20172;-76
2021/03/06 11:25:29;;;;;;;12.00;6.53;;;;;;;8.61;57.63;102825.16;5078950;28;20736;-78
2021/03/06 11:28:05;;;;;;;8.03;5.97;;;;;;;8.11;58.06;102824.25;5079449;28;20172;-77
2021/03/06 11:30:33;;;;;;;10.90;6.50;;;;;;;8.07;58.36;102833.56;5079355;28;20179;-79
2021/03/06 11:33:00;;;;;;;10.50;6.23;;;;;;;8.21;57.85;102831.75;5079410;28;20407;-77
2021/03/06 11:35:26;;;;;;;8.00;6.73;;;;;;;8.04;57.43;102832.53;5078613;28;20522;-78
2021/03/06 11:37:52;;;;;;;13.00;6.13;;;;;;;8.93;55.93;102836.31;5078987;28;20423;-77